sensor_id;sensor_type;location;lat;lon;timestamp;pressure;altitude;pressure_sealevel;temperature;humidity
28626;BME280;18905;42.668;23.364;2023-04-23T00:01:11;95062.91;;;10.66;100.00
28626;BME280;18905;42.668;23.364;2023-04-23T00:03:37;94943.34;;;9.97;100.00
28626;BME280;18905;42.668;23.364;2023-04-23T00:06:07;94907.00;;;9.86;100.00
28626;BME280;18905;42.668;23.364;2023-04-23T00:08:41;94969.22;;;10.24;100.00
28626;BME280;18905;42.668;23.364;2023-04-23T00:11:08;94918.91;;;9.77;100.00
28626;BME280;18905;42.668;23.364;2023-04-23T00:13:35;94949.03;;;9.87;100.00
28626;BME280;18905;42.668;23.364;2023-04-23T00:16:01;94976.63;;;10.01;100.00
28626;BME280;18905;42.668;23.364;2023-04-23T00:18:27;94925.38;;;9.76;100.00
28626;BME280;18905;42.668;23.364;2023-04-23T00:20:57;94924.44;;;9.72;100.00
28626;BME280;18905;42.668;23.364;2023-04-23T00:23:23;94943.25;;;9.46;100.00
28626;BME280;18905;42.668;23.364;2023-04-23T00:25:49;95053.81;;;10.11;100.00
28626;BME280;18905;42.668;23.364;2023-04-23T00:28:15;94942.47;;;9.46;100.00
28626;BME280;18905;42.668;23.364;2023-04-23T00:30:41;94944.84;;;9.47;100.00
28626;BME280;18905;42.668;23.364;2023-04-23T00:33:06;94938.50;;;9.43;100.00
28626;BME280;18905;42.668;23.364;2023-04-23T00:35:32;94936.13;;;9.50;100.00
28626;BME280;18905;42.668;23.364;2023-04-23T00:37:58;94958.78;;;9.49;100.00
28626;BME280;18905;42.668;23.364;2023-04-23T00:40:24;94985.81;;;9.66;100.00
28626;BME280;18905;42.668;23.364;2023-04-23T00:42:50;95058.50;;;9.97;100.00
28626;BME280;18905;42.668;23.364;2023-04-23T00:45:18;94923.19;;;9.13;100.00
28626;BME280;18905;42.668;23.364;2023-04-23T00:47:45;94981.47;;;9.40;100.00
28626;BME280;18905;42.668;23.364;2023-04-23T00:50:11;95004.75;;;9.44;100.00
28626;BME280;18905;42.668;23.364;2023-04-23T00:52:37;95055.97;;;9.83;100.00
28626;BME280;18905;42.668;23.364;2023-04-23T00:55:05;94912.38;;;8.96;100.00
28626;BME280;18905;42.668;23.364;2023-04-23T01:00:07;95051.53;;;9.96;100.00
28626;BME280;18905;42.668;23.364;2023-04-23T01:02:34;95047.53;;;9.85;100.00
28626;BME280;18905;42.668;23.364;2023-04-23T01:05:04;94965.53;;;9.30;100.00
28626;BME280;18905;42.668;23.364;2023-04-23T01:07:36;94962.13;;;8.99;100.00
28626;BME280;18905;42.668;23.364;2023-04-23T01:10:03;94971.28;;;8.67;100.00
28626;BME280;18905;42.668;23.364;2023-04-23T01:12:30;95010.63;;;8.77;100.00
28626;BME280;18905;42.668;23.364;2023-04-23T01:14:59;94974.44;;;8.03;100.00
28626;BME280;18905;42.668;23.364;2023-04-23T01:17:27;94934.28;;;7.85;100.00
28626;BME280;18905;42.668;23.364;2023-04-23T01:19:53;95053.13;;;8.44;100.00
28626;BME280;18905;42.668;23.364;2023-04-23T01:22:19;94909.09;;;7.45;100.00
28626;BME280;18905;42.668;23.364;2023-04-23T01:24:46;94887.06;;;7.57;100.00
28626;BME280;18905;42.668;23.364;2023-04-23T01:27:12;94946.47;;;7.69;100.00
28626;BME280;18905;42.668;23.364;2023-04-23T01:29:41;94911.53;;;7.33;100.00
28626;BME280;18905;42.668;23.364;2023-04-23T01:32:08;94900.19;;;7.36;100.00
28626;BME280;18905;42.668;23.364;2023-04-23T01:34:34;94966.84;;;7.83;100.00
28626;BME280;18905;42.668;23.364;2023-04-23T01:37:01;94931.38;;;7.46;100.00
28626;BME280;18905;42.668;23.364;2023-04-23T01:39:27;94966.44;;;7.90;100.00
28626;BME280;18905;42.668;23.364;2023-04-23T01:41:53;94922.81;;;7.57;100.00
28626;BME280;18905;42.668;23.364;2023-04-23T01:44:19;94960.75;;;7.91;100.00
28626;BME280;18905;42.668;23.364;2023-04-23T01:46:45;94936.91;;;7.98;100.00
28626;BME280;18905;42.668;23.364;2023-04-23T01:49:11;94949.84;;;7.74;100.00
28626;BME280;18905;42.668;23.364;2023-04-23T01:51:37;94923.44;;;7.41;100.00
28626;BME280;18905;42.668;23.364;2023-04-23T01:54:02;94935.53;;;7.65;100.00
28626;BME280;18905;42.668;23.364;2023-04-23T01:56:28;94932.09;;;7.38;100.00
28626;BME280;18905;42.668;23.364;2023-04-23T01:58:55;94934.59;;;7.34;100.00
28626;BME280;18905;42.668;23.364;2023-04-23T02:01:21;95040.25;;;8.06;100.00
28626;BME280;18905;42.668;23.364;2023-04-23T02:03:48;94980.50;;;7.73;100.00
28626;BME280;18905;42.668;23.364;2023-04-23T02:06:14;95077.03;;;8.46;100.00
28626;BME280;18905;42.668;23.364;2023-04-23T02:08:40;94892.78;;;7.42;100.00
28626;BME280;18905;42.668;23.364;2023-04-23T02:11:06;94972.69;;;7.99;100.00
28626;BME280;18905;42.668;23.364;2023-04-23T02:13:32;94925.84;;;7.78;100.00
28626;BME280;18905;42.668;23.364;2023-04-23T02:15:58;94982.94;;;8.32;100.00
28626;BME280;18905;42.668;23.364;2023-04-23T02:18:24;94927.31;;;7.84;100.00
28626;BME280;18905;42.668;23.364;2023-04-23T02:20:50;95073.69;;;8.84;100.00
28626;BME280;18905;42.668;23.364;2023-04-23T02:23:15;95030.81;;;8.66;100.00
28626;BME280;18905;42.668;23.364;2023-04-23T02:25:41;94927.44;;;8.01;100.00
28626;BME280;18905;42.668;23.364;2023-04-23T02:28:08;95079.81;;;8.98;100.00
28626;BME280;18905;42.668;23.364;2023-04-23T02:30:36;94965.00;;;8.28;100.00
28626;BME280;18905;42.668;23.364;2023-04-23T02:33:02;94921.91;;;7.97;100.00
28626;BME280;18905;42.668;23.364;2023-04-23T02:35:28;94932.28;;;8.12;100.00
28626;BME280;18905;42.668;23.364;2023-04-23T02:37:54;94941.50;;;8.20;100.00
28626;BME280;18905;42.668;23.364;2023-04-23T02:40:20;94949.69;;;8.28;100.00
28626;BME280;18905;42.668;23.364;2023-04-23T02:42:46;95003.72;;;8.62;100.00
28626;BME280;18905;42.668;23.364;2023-04-23T02:45:12;94977.47;;;8.46;100.00
28626;BME280;18905;42.668;23.364;2023-04-23T02:47:38;95022.66;;;8.79;100.00
28626;BME280;18905;42.668;23.364;2023-04-23T02:50:04;94980.13;;;8.02;100.00
28626;BME280;18905;42.668;23.364;2023-04-23T02:52:31;94995.06;;;7.94;100.00
28626;BME280;18905;42.668;23.364;2023-04-23T02:54:58;94973.75;;;7.76;100.00
28626;BME280;18905;42.668;23.364;2023-04-23T02:57:23;94926.75;;;7.24;100.00
28626;BME280;18905;42.668;23.364;2023-04-23T02:59:49;94982.44;;;7.46;100.00
28626;BME280;18905;42.668;23.364;2023-04-23T03:02:15;94987.28;;;7.71;100.00
28626;BME280;18905;42.668;23.364;2023-04-23T03:04:41;94958.75;;;7.48;100.00
28626;BME280;18905;42.668;23.364;2023-04-23T03:07:09;94958.44;;;7.49;100.00
28626;BME280;18905;42.668;23.364;2023-04-23T03:09:37;94944.44;;;7.39;100.00
28626;BME280;18905;42.668;23.364;2023-04-23T03:12:03;94945.53;;;7.38;100.00
28626;BME280;18905;42.668;23.364;2023-04-23T03:14:29;94990.50;;;7.59;100.00
28626;BME280;18905;42.668;23.364;2023-04-23T03:16:55;94941.88;;;7.20;100.00
28626;BME280;18905;42.668;23.364;2023-04-23T03:19:20;94953.09;;;7.36;100.00
28626;BME280;18905;42.668;23.364;2023-04-23T03:21:46;94957.25;;;7.42;100.00
28626;BME280;18905;42.668;23.364;2023-04-23T03:24:12;94932.91;;;7.25;100.00
28626;BME280;18905;42.668;23.364;2023-04-23T03:26:39;95007.97;;;7.57;100.00
28626;BME280;18905;42.668;23.364;2023-04-23T03:29:05;95043.81;;;7.66;100.00
28626;BME280;18905;42.668;23.364;2023-04-23T03:31:31;95101.53;;;8.09;100.00
28626;BME280;18905;42.668;23.364;2023-04-23T03:33:56;95029.00;;;7.55;100.00
28626;BME280;18905;42.668;23.364;2023-04-23T03:36:22;94947.94;;;6.85;100.00
28626;BME280;18905;42.668;23.364;2023-04-23T03:38:48;94968.13;;;6.96;100.00
28626;BME280;18905;42.668;23.364;2023-04-23T03:41:14;95034.66;;;7.26;100.00
28626;BME280;18905;42.668;23.364;2023-04-23T03:43:40;94965.50;;;6.64;100.00
28626;BME280;18905;42.668;23.364;2023-04-23T03:46:06;94986.50;;;6.89;100.00
28626;BME280;18905;42.668;23.364;2023-04-23T03:48:31;95064.41;;;7.43;100.00
28626;BME280;18905;42.668;23.364;2023-04-23T03:50:57;95052.16;;;7.24;100.00
28626;BME280;18905;42.668;23.364;2023-04-23T03:53:23;95028.88;;;7.06;100.00
28626;BME280;18905;42.668;23.364;2023-04-23T03:55:48;95111.88;;;7.75;100.00
28626;BME280;18905;42.668;23.364;2023-04-23T03:58:15;94950.00;;;6.61;100.00
28626;BME280;18905;42.668;23.364;2023-04-23T04:00:42;95038.81;;;6.92;100.00
28626;BME280;18905;42.668;23.364;2023-04-23T04:03:08;95035.25;;;6.96;100.00
28626;BME280;18905;42.668;23.364;2023-04-23T04:05:34;95013.44;;;6.71;100.00
28626;BME280;18905;42.668;23.364;2023-04-23T04:08:00;95034.91;;;6.84;100.00
28626;BME280;18905;42.668;23.364;2023-04-23T04:10:26;95004.19;;;6.77;100.00
28626;BME280;18905;42.668;23.364;2023-04-23T04:12:52;95101.72;;;7.58;100.00
28626;BME280;18905;42.668;23.364;2023-04-23T04:15:19;94985.63;;;6.94;100.00
28626;BME280;18905;42.668;23.364;2023-04-23T04:17:45;94960.94;;;6.65;100.00
28626;BME280;18905;42.668;23.364;2023-04-23T04:20:11;95137.41;;;8.53;100.00
28626;BME280;18905;42.668;23.364;2023-04-23T04:22:37;94991.38;;;8.61;100.00
28626;BME280;18905;42.668;23.364;2023-04-23T04:25:03;94977.44;;;8.90;100.00
28626;BME280;18905;42.668;23.364;2023-04-23T04:27:30;95001.09;;;9.01;100.00
28626;BME280;18905;42.668;23.364;2023-04-23T04:29:59;95134.50;;;10.46;100.00
28626;BME280;18905;42.668;23.364;2023-04-23T04:32:30;95097.34;;;10.86;100.00
28626;BME280;18905;42.668;23.364;2023-04-23T04:34:56;94956.69;;;10.11;100.00
28626;BME280;18905;42.668;23.364;2023-04-23T04:37:22;95004.63;;;11.28;100.00
28626;BME280;18905;42.668;23.364;2023-04-23T04:42:25;94993.72;;;12.32;100.00
28626;BME280;18905;42.668;23.364;2023-04-23T04:44:50;95050.84;;;12.60;100.00
28626;BME280;18905;42.668;23.364;2023-04-23T04:47:17;95047.28;;;12.68;100.00
28626;BME280;18905;42.668;23.364;2023-04-23T04:49:43;95100.44;;;13.34;100.00
28626;BME280;18905;42.668;23.364;2023-04-23T04:52:10;94993.59;;;13.02;100.00
28626;BME280;18905;42.668;23.364;2023-04-23T04:54:35;95015.41;;;12.85;100.00
28626;BME280;18905;42.668;23.364;2023-04-23T04:57:01;95091.69;;;13.61;100.00
28626;BME280;18905;42.668;23.364;2023-04-23T04:59:26;95050.16;;;13.24;99.84
28626;BME280;18905;42.668;23.364;2023-04-23T05:01:52;95018.84;;;13.27;96.98
28626;BME280;18905;42.668;23.364;2023-04-23T05:04:18;95143.66;;;13.95;95.80
28626;BME280;18905;42.668;23.364;2023-04-23T05:06:43;95018.81;;;13.15;97.92
28626;BME280;18905;42.668;23.364;2023-04-23T05:09:09;95041.78;;;13.29;98.00
28626;BME280;18905;42.668;23.364;2023-04-23T05:11:35;95056.19;;;13.09;100.00
28626;BME280;18905;42.668;23.364;2023-04-23T05:14:01;95072.59;;;12.72;100.00
28626;BME280;18905;42.668;23.364;2023-04-23T05:16:28;95088.25;;;13.07;100.00
28626;BME280;18905;42.668;23.364;2023-04-23T05:18:54;95057.72;;;12.78;100.00
28626;BME280;18905;42.668;23.364;2023-04-23T05:21:20;95085.94;;;13.18;100.00
28626;BME280;18905;42.668;23.364;2023-04-23T05:23:45;95062.53;;;12.93;100.00
28626;BME280;18905;42.668;23.364;2023-04-23T05:26:11;95016.59;;;12.76;100.00
28626;BME280;18905;42.668;23.364;2023-04-23T05:28:36;95055.25;;;12.85;100.00
28626;BME280;18905;42.668;23.364;2023-04-23T05:31:02;95048.47;;;12.58;100.00
28626;BME280;18905;42.668;23.364;2023-04-23T05:33:28;95041.06;;;12.67;100.00
28626;BME280;18905;42.668;23.364;2023-04-23T05:35:53;95042.81;;;12.51;100.00
28626;BME280;18905;42.668;23.364;2023-04-23T05:38:19;95139.69;;;13.16;100.00
28626;BME280;18905;42.668;23.364;2023-04-23T05:40:45;95148.50;;;13.13;100.00
28626;BME280;18905;42.668;23.364;2023-04-23T05:43:11;95147.09;;;13.07;100.00
28626;BME280;18905;42.668;23.364;2023-04-23T05:50:47;94999.06;;;12.00;100.00
28626;BME280;18905;42.668;23.364;2023-04-23T05:53:13;95060.97;;;12.01;100.00
28626;BME280;18905;42.668;23.364;2023-04-23T05:55:39;94997.53;;;11.06;100.00
28626;BME280;18905;42.668;23.364;2023-04-23T05:58:05;95042.59;;;12.07;100.00
28626;BME280;18905;42.668;23.364;2023-04-23T06:02:59;95045.22;;;12.65;100.00
28626;BME280;18905;42.668;23.364;2023-04-23T06:05:25;95103.50;;;12.91;100.00
28626;BME280;18905;42.668;23.364;2023-04-23T06:07:52;95152.84;;;13.58;100.00
28626;BME280;18905;42.668;23.364;2023-04-23T06:10:18;95039.25;;;12.92;100.00
28626;BME280;18905;42.668;23.364;2023-04-23T06:12:44;95149.09;;;13.51;100.00
28626;BME280;18905;42.668;23.364;2023-04-23T06:15:12;95041.25;;;13.03;100.00
28626;BME280;18905;42.668;23.364;2023-04-23T06:17:59;95109.09;;;14.16;98.45
28626;BME280;18905;42.668;23.364;2023-04-23T06:20:26;95141.69;;;14.64;96.71
28626;BME280;18905;42.668;23.364;2023-04-23T06:22:52;95101.97;;;16.59;100.00
28626;BME280;18905;42.668;23.364;2023-04-23T06:25:17;95149.53;;;18.07;100.00
28626;BME280;18905;42.668;23.364;2023-04-23T06:27:43;95144.19;;;18.59;100.00
28626;BME280;18905;42.668;23.364;2023-04-23T06:30:08;95144.94;;;19.96;89.97
28626;BME280;18905;42.668;23.364;2023-04-23T06:32:34;95145.22;;;19.25;80.24
28626;BME280;18905;42.668;23.364;2023-04-23T06:34:59;95141.56;;;19.44;68.47
28626;BME280;18905;42.668;23.364;2023-04-23T06:37:24;95146.44;;;18.76;68.33
28626;BME280;18905;42.668;23.364;2023-04-23T06:39:52;95146.19;;;20.06;63.91
28626;BME280;18905;42.668;23.364;2023-04-23T06:42:17;95143.72;;;20.74;66.66
28626;BME280;18905;42.668;23.364;2023-04-23T06:44:43;95144.19;;;21.41;62.93
28626;BME280;18905;42.668;23.364;2023-04-23T06:47:08;95138.78;;;21.55;57.61
28626;BME280;18905;42.668;23.364;2023-04-23T06:49:33;95130.91;;;21.46;57.58
28626;BME280;18905;42.668;23.364;2023-04-23T06:51:59;95132.03;;;20.80;59.58
28626;BME280;18905;42.668;23.364;2023-04-23T06:54:25;95142.47;;;21.83;57.89
28626;BME280;18905;42.668;23.364;2023-04-23T06:56:50;95142.09;;;20.66;57.59
28626;BME280;18905;42.668;23.364;2023-04-23T06:59:16;95117.25;;;19.72;60.90
28626;BME280;18905;42.668;23.364;2023-04-23T07:01:42;95137.63;;;18.18;69.55
28626;BME280;18905;42.668;23.364;2023-04-23T07:04:07;95127.09;;;18.20;70.44
28626;BME280;18905;42.668;23.364;2023-04-23T07:06:32;95134.09;;;18.18;71.37
28626;BME280;18905;42.668;23.364;2023-04-23T07:08:59;95089.09;;;17.48;72.88
28626;BME280;18905;42.668;23.364;2023-04-23T07:11:24;95132.03;;;16.97;78.74
28626;BME280;18905;42.668;23.364;2023-04-23T07:13:50;95137.16;;;16.99;79.78
28626;BME280;18905;42.668;23.364;2023-04-23T07:16:15;95086.25;;;16.22;83.48
28626;BME280;18905;42.668;23.364;2023-04-23T07:18:41;95126.16;;;16.45;84.72
28626;BME280;18905;42.668;23.364;2023-04-23T07:21:12;95110.50;;;16.58;83.35
28626;BME280;18905;42.668;23.364;2023-04-23T07:23:37;95129.25;;;16.94;83.86
28626;BME280;18905;42.668;23.364;2023-04-23T07:26:02;95115.75;;;17.54;79.68
28626;BME280;18905;42.668;23.364;2023-04-23T07:28:28;95111.78;;;17.52;76.96
28626;BME280;18905;42.668;23.364;2023-04-23T07:30:53;95108.41;;;17.39;77.43
28626;BME280;18905;42.668;23.364;2023-04-23T07:33:19;95059.84;;;16.91;79.35
28626;BME280;18905;42.668;23.364;2023-04-23T07:35:45;95109.66;;;17.26;80.93
28626;BME280;18905;42.668;23.364;2023-04-23T07:38:11;95110.97;;;17.70;76.70
28626;BME280;18905;42.668;23.364;2023-04-23T07:40:36;95103.00;;;18.03;74.73
28626;BME280;18905;42.668;23.364;2023-04-23T07:43:02;95114.16;;;18.36;72.04
28626;BME280;18905;42.668;23.364;2023-04-23T07:45:28;95130.66;;;18.43;70.24
28626;BME280;18905;42.668;23.364;2023-04-23T07:47:53;95120.38;;;18.14;72.35
28626;BME280;18905;42.668;23.364;2023-04-23T07:50:18;95092.38;;;18.21;71.98
28626;BME280;18905;42.668;23.364;2023-04-23T07:52:44;95095.97;;;17.61;73.29
28626;BME280;18905;42.668;23.364;2023-04-23T07:55:09;95117.69;;;17.00;79.10
28626;BME280;18905;42.668;23.364;2023-04-23T07:57:35;95125.34;;;17.86;76.28
28626;BME280;18905;42.668;23.364;2023-04-23T08:00:01;95101.97;;;17.70;75.05
28626;BME280;18905;42.668;23.364;2023-04-23T08:02:26;95092.59;;;17.29;77.08
28626;BME280;18905;42.668;23.364;2023-04-23T08:04:52;95124.50;;;17.63;76.84
28626;BME280;18905;42.668;23.364;2023-04-23T08:07:18;95127.25;;;17.63;76.30
28626;BME280;18905;42.668;23.364;2023-04-23T08:09:43;95127.81;;;17.95;77.56
28626;BME280;18905;42.668;23.364;2023-04-23T08:12:09;95081.84;;;18.45;72.10
28626;BME280;18905;42.668;23.364;2023-04-23T08:14:35;95109.63;;;18.99;67.05
28626;BME280;18905;42.668;23.364;2023-04-23T08:17:00;95075.41;;;17.67;71.58
28626;BME280;18905;42.668;23.364;2023-04-23T08:19:25;95122.41;;;17.03;77.69
28626;BME280;18905;42.668;23.364;2023-04-23T08:21:55;95103.00;;;16.39;81.02
28626;BME280;18905;42.668;23.364;2023-04-23T08:24:21;95084.72;;;15.47;87.48
28626;BME280;18905;42.668;23.364;2023-04-23T08:26:46;95116.69;;;15.65;91.30
28626;BME280;18905;42.668;23.364;2023-04-23T08:29:12;95103.81;;;16.55;87.11
28626;BME280;18905;42.668;23.364;2023-04-23T08:31:37;95074.72;;;16.59;82.00
28626;BME280;18905;42.668;23.364;2023-04-23T08:34:03;95082.75;;;17.63;77.95
28626;BME280;18905;42.668;23.364;2023-04-23T08:36:28;95067.53;;;17.84;73.48
28626;BME280;18905;42.668;23.364;2023-04-23T08:38:54;95103.50;;;18.54;69.90
28626;BME280;18905;42.668;23.364;2023-04-23T08:41:22;95103.28;;;17.98;71.76
28626;BME280;18905;42.668;23.364;2023-04-23T08:44:10;95105.00;;;18.06;71.81
28626;BME280;18905;42.668;23.364;2023-04-23T08:46:41;95100.34;;;18.07;71.62
28626;BME280;18905;42.668;23.364;2023-04-23T08:49:07;95091.13;;;18.63;67.67
28626;BME280;18905;42.668;23.364;2023-04-23T08:51:37;95099.75;;;18.65;66.69
28626;BME280;18905;42.668;23.364;2023-04-23T08:54:07;95093.09;;;18.40;65.27
28626;BME280;18905;42.668;23.364;2023-04-23T08:56:39;95065.00;;;17.72;70.05
28626;BME280;18905;42.668;23.364;2023-04-23T08:59:05;95048.16;;;17.70;68.24
28626;BME280;18905;42.668;23.364;2023-04-23T09:01:32;95078.94;;;17.48;68.92
28626;BME280;18905;42.668;23.364;2023-04-23T09:03:59;95095.38;;;17.14;68.96
28626;BME280;18905;42.668;23.364;2023-04-23T09:06:25;95087.75;;;17.80;69.61
28626;BME280;18905;42.668;23.364;2023-04-23T09:08:50;95060.66;;;18.16;67.66
28626;BME280;18905;42.668;23.364;2023-04-23T09:11:17;95083.34;;;18.65;65.96
28626;BME280;18905;42.668;23.364;2023-04-23T09:13:43;95078.94;;;18.12;65.60
28626;BME280;18905;42.668;23.364;2023-04-23T09:16:09;95075.00;;;17.46;66.72
28626;BME280;18905;42.668;23.364;2023-04-23T09:18:34;95041.84;;;16.52;71.55
28626;BME280;18905;42.668;23.364;2023-04-23T09:21:00;95086.88;;;17.00;70.95
28626;BME280;18905;42.668;23.364;2023-04-23T09:23:28;95070.50;;;17.76;68.88
28626;BME280;18905;42.668;23.364;2023-04-23T09:25:56;95062.69;;;18.19;63.99
28626;BME280;18905;42.668;23.364;2023-04-23T09:28:35;95080.72;;;18.01;66.94
28626;BME280;18905;42.668;23.364;2023-04-23T09:31:03;95049.03;;;18.45;64.65
28626;BME280;18905;42.668;23.364;2023-04-23T09:33:30;95027.69;;;18.06;64.60
28626;BME280;18905;42.668;23.364;2023-04-23T09:35:57;95023.34;;;18.01;65.11
28626;BME280;18905;42.668;23.364;2023-04-23T09:38:22;95049.94;;;18.79;62.69
28626;BME280;18905;42.668;23.364;2023-04-23T09:40:49;95043.03;;;18.88;60.46
28626;BME280;18905;42.668;23.364;2023-04-23T09:43:14;95028.47;;;19.10;57.92
28626;BME280;18905;42.668;23.364;2023-04-23T09:45:47;95011.84;;;18.37;59.77
28626;BME280;18905;42.668;23.364;2023-04-23T09:48:13;95025.97;;;18.98;58.47
28626;BME280;18905;42.668;23.364;2023-04-23T09:50:39;95053.34;;;18.98;56.37
28626;BME280;18905;42.668;23.364;2023-04-23T09:53:07;95002.19;;;18.73;56.40
28626;BME280;18905;42.668;23.364;2023-04-23T09:55:35;95047.47;;;18.70;58.12
28626;BME280;18905;42.668;23.364;2023-04-23T09:58:09;95016.47;;;18.89;58.53
28626;BME280;18905;42.668;23.364;2023-04-23T10:00:37;95030.03;;;19.41;58.49
28626;BME280;18905;42.668;23.364;2023-04-23T10:03:03;95002.75;;;19.91;53.87
28626;BME280;18905;42.668;23.364;2023-04-23T10:05:31;95019.50;;;20.23;53.16
28626;BME280;18905;42.668;23.364;2023-04-23T10:07:56;94996.63;;;19.65;53.17
28626;BME280;18905;42.668;23.364;2023-04-23T10:10:22;95019.31;;;20.05;53.36
28626;BME280;18905;42.668;23.364;2023-04-23T10:12:51;95001.84;;;20.17;49.93
28626;BME280;18905;42.668;23.364;2023-04-23T10:15:17;95023.34;;;21.41;47.58
28626;BME280;18905;42.668;23.364;2023-04-23T10:17:43;95022.22;;;23.24;43.76
28626;BME280;18905;42.668;23.364;2023-04-23T10:20:11;94998.91;;;24.14;40.93
28626;BME280;18905;42.668;23.364;2023-04-23T10:22:38;94987.94;;;24.55;40.14
28626;BME280;18905;42.668;23.364;2023-04-23T10:25:10;95023.47;;;22.95;41.99
28626;BME280;18905;42.668;23.364;2023-04-23T10:27:38;94984.94;;;21.69;42.76
28626;BME280;18905;42.668;23.364;2023-04-23T10:30:05;94976.69;;;21.58;43.42
28626;BME280;18905;42.668;23.364;2023-04-23T10:32:32;94977.06;;;21.50;43.61
28626;BME280;18905;42.668;23.364;2023-04-23T10:34:58;94977.16;;;21.88;43.08
28626;BME280;18905;42.668;23.364;2023-04-23T10:37:23;94981.84;;;21.84;44.88
28626;BME280;18905;42.668;23.364;2023-04-23T10:39:53;94945.59;;;21.19;44.18
28626;BME280;18905;42.668;23.364;2023-04-23T10:42:19;94986.50;;;21.63;44.03
28626;BME280;18905;42.668;23.364;2023-04-23T10:44:45;94980.91;;;20.49;47.20
28626;BME280;18905;42.668;23.364;2023-04-23T10:47:13;94981.94;;;19.83;47.69
28626;BME280;18905;42.668;23.364;2023-04-23T10:49:39;94961.69;;;20.45;45.65
28626;BME280;18905;42.668;23.364;2023-04-23T10:52:15;94943.63;;;19.10;47.34
28626;BME280;18905;42.668;23.364;2023-04-23T10:54:42;94969.97;;;20.02;47.03
28626;BME280;18905;42.668;23.364;2023-04-23T10:57:09;94970.78;;;20.56;43.92
28626;BME280;18905;42.668;23.364;2023-04-23T10:59:50;94968.78;;;20.53;42.38
28626;BME280;18905;42.668;23.364;2023-04-23T11:02:16;94970.81;;;20.67;43.82
28626;BME280;18905;42.668;23.364;2023-04-23T11:04:52;94949.81;;;20.96;42.65
28626;BME280;18905;42.668;23.364;2023-04-23T11:07:18;94958.34;;;20.80;43.14
28626;BME280;18905;42.668;23.364;2023-04-23T11:09:50;94936.69;;;20.64;41.76
28626;BME280;18905;42.668;23.364;2023-04-23T11:14:50;94947.19;;;19.94;44.43
28626;BME280;18905;42.668;23.364;2023-04-23T11:22:48;94929.94;;;20.44;42.63
28626;BME280;18905;42.668;23.364;2023-04-23T11:25:24;94900.25;;;19.99;41.76
28626;BME280;18905;42.668;23.364;2023-04-23T11:27:51;94911.81;;;20.26;41.95
28626;BME280;18905;42.668;23.364;2023-04-23T11:30:26;94927.84;;;20.24;42.20
28626;BME280;18905;42.668;23.364;2023-04-23T11:32:53;94866.88;;;19.36;41.99
28626;BME280;18905;42.668;23.364;2023-04-23T11:35:21;94902.38;;;20.23;41.46
28626;BME280;18905;42.668;23.364;2023-04-23T11:37:47;94912.06;;;20.78;40.76
28626;BME280;18905;42.668;23.364;2023-04-23T11:40:16;94914.81;;;20.75;39.12
28626;BME280;18905;42.668;23.364;2023-04-23T11:42:49;94927.59;;;20.43;40.42
28626;BME280;18905;42.668;23.364;2023-04-23T11:45:19;94930.38;;;20.53;41.73
28626;BME280;18905;42.668;23.364;2023-04-23T11:47:48;94906.44;;;20.47;40.92
28626;BME280;18905;42.668;23.364;2023-04-23T11:50:26;94918.59;;;20.46;41.11
28626;BME280;18905;42.668;23.364;2023-04-23T11:52:52;94914.66;;;20.43;40.91
28626;BME280;18905;42.668;23.364;2023-04-23T11:55:18;94904.88;;;20.42;39.57
28626;BME280;18905;42.668;23.364;2023-04-23T11:57:49;94912.31;;;20.45;38.56
28626;BME280;18905;42.668;23.364;2023-04-23T12:02:53;94897.25;;;20.90;38.37
28626;BME280;18905;42.668;23.364;2023-04-23T12:05:26;94872.19;;;20.95;36.31
28626;BME280;18905;42.668;23.364;2023-04-23T12:07:52;94877.72;;;21.09;37.78
28626;BME280;18905;42.668;23.364;2023-04-23T12:10:19;94890.63;;;20.98;37.96
28626;BME280;18905;42.668;23.364;2023-04-23T12:12:49;94862.69;;;20.00;39.39
28626;BME280;18905;42.668;23.364;2023-04-23T12:15:15;94888.84;;;19.40;40.46
28626;BME280;18905;42.668;23.364;2023-04-23T12:17:41;94875.44;;;19.31;39.95
28626;BME280;18905;42.668;23.364;2023-04-23T12:20:09;94860.38;;;19.11;40.29
28626;BME280;18905;42.668;23.364;2023-04-23T12:22:37;94887.91;;;19.25;40.96
28626;BME280;18905;42.668;23.364;2023-04-23T12:25:04;94822.69;;;18.98;40.41
28626;BME280;18905;42.668;23.364;2023-04-23T12:27:32;94872.69;;;19.28;40.63
28626;BME280;18905;42.668;23.364;2023-04-23T12:30:03;94824.09;;;18.81;40.42
28626;BME280;18905;42.668;23.364;2023-04-23T12:32:28;94856.47;;;19.12;40.00
28626;BME280;18905;42.668;23.364;2023-04-23T12:34:54;94862.38;;;19.14;39.91
28626;BME280;18905;42.668;23.364;2023-04-23T12:37:24;94850.50;;;19.40;39.24
28626;BME280;18905;42.668;23.364;2023-04-23T12:39:50;94851.50;;;18.85;41.29
28626;BME280;18905;42.668;23.364;2023-04-23T12:42:17;94836.69;;;18.89;41.15
28626;BME280;18905;42.668;23.364;2023-04-23T12:44:42;94851.06;;;18.79;40.92
28626;BME280;18905;42.668;23.364;2023-04-23T12:47:09;94871.53;;;18.59;41.83
28626;BME280;18905;42.668;23.364;2023-04-23T12:49:40;94858.03;;;18.73;41.58
28626;BME280;18905;42.668;23.364;2023-04-23T12:52:07;94861.56;;;18.77;41.64
28626;BME280;18905;42.668;23.364;2023-04-23T12:54:38;94858.38;;;19.08;40.51
28626;BME280;18905;42.668;23.364;2023-04-23T12:57:05;94865.91;;;19.18;40.06
28626;BME280;18905;42.668;23.364;2023-04-23T12:59:32;94861.41;;;18.96;40.28
28626;BME280;18905;42.668;23.364;2023-04-23T13:01:58;94857.75;;;18.85;39.40
28626;BME280;18905;42.668;23.364;2023-04-23T13:04:32;94863.19;;;18.82;39.84
28626;BME280;18905;42.668;23.364;2023-04-23T13:06:58;94847.03;;;18.70;39.66
28626;BME280;18905;42.668;23.364;2023-04-23T13:09:23;94862.91;;;18.57;39.74